UILQUILLAYUTE
METARs for airports near UIL, sorted by distance:
N 0 nm 193' KUIL 201102Z 00000KT 1 3/4SM BR CLR 12/12 A3009
E 44 nm 291' KCLM 201053Z 24003KT 10SM CLR 11/10 A3010
E 47 nm 13' KNOW 201055Z 00000KT 10SM CLR 11/11 A3009
NE 62 nm 64' CYYJ 201100Z 24006KT 20SM SKC 12/11 A3006
SE 63 nm 17' KHQM 201107Z 00000KT 2SM BR OVC003 14/13 A3010
NE 70 nm 112' KFHR 201112Z 00000KT 1/2SM FG VV002 11/10 A3009
SE 71 nm 272' KSHN 201053Z 26004KT 10SM OVC012 14/14 A3008
N 72 nm 92' CYCD 200400Z VRB02KT 20SM SCT070 14/13 A3004
E 77 nm 444' KPWT 201109Z 00000KT 10SM FEW007 SCT013 OVC023 14/14 A3010
E 80 nm 47' KNUW 201056Z 22007KT 10SM SCT040 BKN080 15/12 A3012
NE 80 nm 34' KORS 201055Z 17005KT 10SM CLR 13/12 A3006
NW 83 nm 80' CYAZ 200100Z 20004KT 12SM FEW012 SCT036 BKN100 16/15 A3005
SE 88 nm 207' KOLM 201054Z 19003KT 10SM OVC028 15/14 A3010
SE 89 nm 294' KTIW 201053Z 18003KT 10SM SCT032 13/12 A3010
E 91 nm 145' KBVS 201055Z 00000KT 10SM BKN012 OVC019 14/13 A3009
E 91 nm 607' KPAE 201059Z 00000KT 1SM -RA BR BKN004 OVC013 14/14 A3011
NE 93 nm 14' CYVR 201100Z 10008KT 15SM BKN049 BKN088 14/12 A3006
E 94 nm 21' KBFI 201053Z 00000KT 10SM FEW007 OVC034 16/14 A3009
SE 95 nm 301' KGRF 201058Z 00000KT 10SM FEW005 SCT014 OVC026 15/15 A3009
E 95 nm 432' KSEA 201053Z 22004KT 3SM -RA BR FEW007 OVC023 15/14 A3010
NE 95 nm 171' KBLI 201053Z 17005KT 10SM FEW013 14/12 A3007
SE 97 nm 322' KTCM 201058Z 22003KT 10SM OVC006 15/14 A3010
E 97 nm 141' KAWO 201103Z 02009KT 10SM FEW014 BKN025 OVC030 14/13 A3010
E 98 nm 32' KRNT 201053Z 17003KT 9SM BKN010 OVC035 16/14 A3009
SE 99 nm 177' KCLS 201055Z 00000KT 10SM SCT012 BKN026 OVC032 16/16 A3011
TAFs for airports near UIL, sorted by distance:
E 44 nm 291' KCLM KCLM 200527Z 2006/2106 28008KT P6SM BKN012 OVC050
  FM201000 27003KT P6SM SCT007 OVC020
  FM202100 32005KT P6SM BKN040 BKN070
  FM210300 29006KT P6SM SCT040 SCT200
SE 63 nm 17' KHQM KHQM 200527Z 2006/2106 21004KT P6SM OVC009
  FM201800 VRB04KT P6SM OVC012
  FM202100 23008KT P6SM BKN035
  FM210300 27006KT P6SM SCT040 SCT200
E 77 nm 444' KPWT TAF KPWT 200527Z 2006/2106 11004KT P6SM OVC010
  FM201100 19003KT P6SM OVC005
  FM201900 19004KT P6SM BKN012 OVC020
  FM202100 19005KT P6SM SCT015 BKN030
  FM210300 04004KT P6SM SCT030 SCT200
E 80 nm 47' KNUW TAF KNUW 2007/2107 VRB06KT 9999 BKN050 BKN100 QNH3010INS
  TEMPO 2007/2013 1600 BR BKN003
  FM201300 VRB06KT 1600 BR BKN003 QNH3012INS
  TEMPO 2013/2019 0800 FG OVC003
  FM202000 VRB06KT FEW005 SCT010 BKN050 QNH3009INS T11/2012Z T21/2023Z FS30162
SE 88 nm 207' KOLM KOLM 200527Z 2006/2106 20005KT 6SM -RA BR FEW030 OVC040
  FM200900 VRB03KT 3SM BR OVC010
  FM201800 21004KT P6SM OVC025
  FM202100 30004KT P6SM BKN040
  FM210300 01004KT P6SM SCT040 SCT200
E 91 nm 607' KPAE KPAE 200527Z 2006/2106 00000KT P6SM VCSH BKN017 BKN050
  FM200900 16005KT 4SM BR OVC008
  FM201800 19004KT P6SM OVC012
  FM202100 24005KT P6SM BKN035
  FM210300 36004KT P6SM SCT040 SCT200
E 94 nm 21' KBFI KBFI 200527Z 2006/2106 17003KT P6SM VCSH FEW010 BKN015 OVC025
  TEMPO 2006/2010 BKN010 OVC020
  FM201000 16004KT P6SM OVC012
  FM201900 19003KT P6SM OVC020
  FM202100 24005KT P6SM BKN045
  FM210400 31003KT P6SM SCT050 SCT200
SE 95 nm 301' KGRF TAF KGRF 200500Z 2005/2111 18006KT 9999 FEW023 QNH3008INS
  BECMG 2006/2007 21010KT 8000 BR FEW012 BKN020 QNH3008INS
  BECMG 2014/2015 23006KT 8000 -RA BR SCT005 OVC010 QNH3009INS
  BECMG 2105/2106 03005KT 9999 NSW SCT020 QNH2998INS
  BECMG 2109/2110 VRB06KT 9999 VCSH BKN030 QNH2995INS TX20/2023Z TN14/2014Z
E 95 nm 432' KSEA KSEA 200901Z 2009/2112 15003KT 5SM BR VCSH SCT007 BKN011 OVC016
  TEMPO 2009/2012 BKN007 OVC012
  FM201200 18004KT P6SM OVC009
  FM201900 21004KT P6SM OVC015
  FM202100 25005KT P6SM BKN040
  FM210400 36005KT P6SM SCT050 SCT200
NE 95 nm 171' KBLI KBLI 200527Z 2006/2106 20007KT P6SM BKN050 OVC090
  FM201000 17007KT P6SM OVC025
  FM202100 18006KT P6SM BKN050
  FM210300 17005KT P6SM BKN070 BKN120
SE 97 nm 322' KTCM TAF KTCM 200500Z 2005/2111 21006KT 9999 BKN015 OVC025 QNH3009INS
  BECMG 2011/2012 22004KT 9999 OVC008 QNH3010INS
  BECMG 2015/2016 22006KT 9999 OVC015 QNH3011INS
  BECMG 2018/2019 26010KT 9999 BKN020 OVC040 QNH3002INS
  BECMG 2021/2022 29009KT 9999 SCT020 BKN035 QNH2998INS TX21/2023Z TN11/2013Z

Shortcut to this page: http://wxbay.com.

Data may contain errors.